Flight Track Log - Related Links

Times and Time Zones

All times are in EDT time to prevent confusion due to time zone crossing. See the SWA1202 flight status page for this flight to view local times or setup timezone preferences in your user account.

Time Position Orientation Groundspeed Altitude Reporting Facility
EDT Latitude Longitude Course Direction KTS MPH feet Rate Location/Type
Tue 03:50:48 PM 35.0458 -106.6772 273° West 218 251 7,700  Level Albuquerque Center
Tue 03:51:19 PM 35.0475 -106.7122 273° West 189 217 8,700 1,770 Climbing Albuquerque Center
Tue 03:51:49 PM 35.0539 -106.7608 279° West 267 307 9,500 1,839 Climbing Albuquerque Center
Tue 03:52:21 PM 35.0586 -106.8017 278° West 236 272 10,600 2,500 Climbing Albuquerque Center
Tue 03:52:49 PM 35.0636 -106.8542 277° West 289 333 12,000 2,754 Climbing Albuquerque Center
Tue 03:53:22 PM 35.0708 -106.9072 279° West 270 311 13,400 2,337 Climbing Albuquerque Center
Tue 03:54:24 PM 35.0814 -107.0089 277° West 295 339 15,700 2,177 Climbing Albuquerque Center
Tue 03:55:26 PM 35.0925 -107.1119 278° West 302 348 17,900 1,512 Climbing Albuquerque Center
Tue 03:56:27 PM 35.1050 -107.2281 278° West 335 386 18,800 1,366 Climbing Albuquerque Center
Tue 03:57:29 PM 35.1033 -107.3606 269° West 380 437 20,700 1,887 Climbing Albuquerque Center
Tue 03:58:31 PM 35.0936 -107.4908 265° West 388 447 22,700 1,659 Climbing Albuquerque Center
Tue 03:59:32 PM 35.0850 -107.6269 266° West 396 456 24,100 1,512 Climbing Albuquerque Center
Tue 04:00:34 PM 35.0722 -107.7956 265° West 412 474 25,800 1,548 Climbing Albuquerque Center
Tue 04:01:36 PM 35.0633 -107.9264 265° West 419 482 27,300 1,742 Climbing Albuquerque Center
Tue 04:02:38 PM 35.0517 -108.0869 265° West 423 487 29,400 1,659 Climbing Albuquerque Center
Tue 04:03:39 PM 35.0414 -108.2203 265° West 416 479 30,700 1,366 Climbing Albuquerque Center
Tue 04:04:41 PM 35.0300 -108.3758 265° West 412 474 32,200 1,306 Climbing Albuquerque Center
Tue 04:05:43 PM 35.0194 -108.5094 265° West 412 474 33,400 1,268 Climbing Albuquerque Center
Tue 04:06:44 PM 35.0064 -108.6631 264° West 409 471 34,800 1,122 Climbing Albuquerque Center
Tue 04:07:46 PM 34.9972 -108.7942 265° West 406 467 35,700 581 Climbing Albuquerque Center
Tue 04:08:48 PM 34.9861 -108.9258 264° West 405 466 36,000 145 Climbing Albuquerque Center
Tue 04:09:50 PM 34.9728 -109.0792 264° West 406 467 36,000  Level Albuquerque Center
Tue 04:10:52 PM 34.9631 -109.2092 265° West 404 465 36,000  Level Albuquerque Center
Tue 04:11:53 PM 34.9539 -109.3608 266° West 401 461 36,000  Level Albuquerque Center
Tue 04:12:55 PM 34.9442 -109.4892 265° West 399 459 36,000  Level Albuquerque Center
Tue 04:13:57 PM 34.9347 -109.6169 265° West 395 455 36,000  Level Albuquerque Center
Tue 04:14:59 PM 34.9244 -109.7683 265° West 399 459 36,000  Level Albuquerque Center
Tue 04:16:01 PM 34.9158 -109.9000 265° West 403 464 36,000  Level Albuquerque Center
Tue 04:17:03 PM 34.9039 -110.0519 265° West 403 464 36,000  Level Albuquerque Center
Tue 04:18:04 PM 34.8961 -110.1822 266° West 405 466 36,000  Level Albuquerque Center
Tue 04:19:06 PM 34.9206 -110.3258 282° West 406 467 36,000  Level Albuquerque Center
Tue 04:20:08 PM 34.9883 -110.4208 311° West 393 452 36,000  Level Albuquerque Center
Tue 04:21:10 PM 35.0669 -110.5306 311° West 387 445 36,000  Level Albuquerque Center
Tue 04:22:12 PM 35.1364 -110.6258 312° West 388 447 36,000  Level Albuquerque Center
Tue 04:23:14 PM 35.1889 -110.7322 301° West 395 455 36,000  Level Albuquerque Center
Tue 04:24:16 PM 35.1606 -110.8794 257° West 400 460 36,000  Level Albuquerque Center
Tue 04:25:17 PM 35.1353 -111.0050 256° West 399 459 36,000  Level Albuquerque Center
Tue 04:26:19 PM 35.1131 -111.1497 259° West 416 479 36,000  Level Albuquerque Center
Tue 04:27:21 PM 35.0869 -111.2828 257° West 410 472 36,000  Level Albuquerque Center
Tue 04:28:23 PM 35.0606 -111.4164 256° West 407 468 36,000  Level Albuquerque Center
Tue 04:29:25 PM 35.0278 -111.5772 256° West 408 470 36,000  Level Albuquerque Center
Tue 04:30:27 PM 35.0014 -111.7100 256° West 407 468 36,000  Level Albuquerque Center
Tue 04:31:28 PM 34.9756 -111.8414 257° West 407 468 36,000  Level Albuquerque Center
Tue 04:32:30 PM 34.9486 -111.9750 256° West 407 468 36,000  Level Albuquerque Center
Tue 04:33:32 PM 34.9214 -112.1097 256° West 408 470 36,000  Level Albuquerque Center
Tue 04:34:34 PM 34.8933 -112.2433 256° West 409 471 36,000  Level Albuquerque Center
Tue 04:35:36 PM 34.8614 -112.4050 257° West 409 471 36,000  Level Albuquerque Center
Tue 04:36:38 PM 34.8331 -112.5397 256° West 410 472 36,000  Level Albuquerque Center
Tue 04:37:40 PM 34.8047 -112.6744 256° West 411 473 36,000  Level Albuquerque Center
Tue 04:38:41 PM 34.7761 -112.8097 256° West 412 474 36,000  Level Albuquerque Center
Tue 04:39:43 PM 34.7475 -112.9444 256° West 411 473 36,000  Level Albuquerque Center
Tue 04:40:45 PM 34.7178 -113.0803 255° West 415 478 36,000  Level Albuquerque Center
Tue 04:41:47 PM 34.6900 -113.2156 256° West 414 476 36,000  Level Albuquerque Center
Tue 04:42:49 PM 34.6553 -113.3797 256° West 417 480 36,000  Level Albuquerque Center
Tue 04:43:51 PM 34.6256 -113.5153 255° West 418 481 36,000  Level Albuquerque Center
Tue 04:44:53 PM 34.5972 -113.6492 256° West 415 478 36,000  Level Albuquerque Center
Tue 04:45:54 PM 34.5661 -113.7822 254° West 409 471 36,000  Level Albuquerque Center
Tue 04:46:56 PM 34.5364 -113.9183 255° West 411 473 36,000  Level Albuquerque Center
Tue 04:47:58 PM 34.5064 -114.0522 255° West 411 473 36,000  Level Albuquerque Center
Tue 04:48:39 PM 34.4833 -114.1625 256° West 405 466 36,000  Level Los Angeles Center
Tue 04:50:43 PM 34.4233 -114.4264 255° West 406 467 36,000  Level Los Angeles Center
Tue 04:51:45 PM 34.3939 -114.5583 255° West 406 467 36,000  Level Los Angeles Center
Tue 04:52:47 PM 34.3639 -114.6897 255° West 406 467 36,000 -48 Level Los Angeles Center
Tue 04:53:49 PM 34.3339 -114.8214 255° West 406 467 35,900 -629 Descending Los Angeles Center
Tue 04:54:51 PM 34.2975 -114.9792 254° West 407 468 34,700 -1,008 Descending Los Angeles Center
Tue 04:55:54 PM 34.2658 -115.1119 254° West 411 473 33,800 -864 Descending Los Angeles Center
Tue 04:56:56 PM 34.2353 -115.2450 255° West 411 473 32,900 -871 Descending Los Angeles Center
Tue 04:57:58 PM 34.2031 -115.3797 254° West 416 479 32,000 -919 Descending Los Angeles Center
Tue 04:59:00 PM 34.1831 -115.5214 260° West 424 488 31,000 -1,016 Descending Los Angeles Center
Tue 05:00:02 PM 34.1600 -115.6886 261° West 424 488 29,900 -484 Descending Los Angeles Center
Tue 05:01:04 PM 34.1406 -115.8303 261° West 427 491 30,000 48 Climbing Los Angeles Center
Tue 05:02:06 PM 34.1200 -115.9739 260° West 433 498 30,000  Level Los Angeles Center
Tue 05:03:08 PM 34.0992 -116.1189 260° West 437 503 30,000 -48 Level Los Angeles Center
Tue 05:04:10 PM 34.0789 -116.2622 260° West 437 503 29,900 -484 Descending Los Angeles Center
Tue 05:05:12 PM 34.0589 -116.4011 260° West 429 494 29,000 -1,632 Descending Los Angeles Center
Tue 05:06:15 PM 34.0358 -116.5639 260° West 417 480 26,500 -2,256 Descending Los Angeles Center
Tue 05:07:17 PM 34.0156 -116.6972 260° West 409 471 24,300 -2,129 Descending Los Angeles Center
Tue 05:08:19 PM 33.9969 -116.8258 260° West 394 453 22,100 -2,296 Descending Los Angeles Center
Tue 05:09:12 PM 33.9833 -116.9500 263° West 367 422 19,900 -2,018 Descending Southern California TRACON
Tue 05:10:12 PM 33.9667 -117.0667 260° West 352 405 18,300 -1,550 Descending Southern California TRACON
Tue 05:11:12 PM 33.9500 -117.1667 259° West 322 371 16,800 -862 Descending Southern California TRACON
Tue 05:13:13 PM 33.9333 -117.3833 265° West 317 365 15,700 -928 Descending Southern California TRACON
Tue 05:14:13 PM 33.9667 -117.4667 296° West 297 342 14,000 -1,600 Descending Southern California TRACON
Tue 05:15:13 PM 34.0000 -117.5667 292° West 289 333 12,500 -1,550 Descending Southern California TRACON
Tue 05:16:13 PM 34.0333 -117.6500 296° West 324 373 10,900 -1,400 Descending Southern California TRACON
Tue 05:17:13 PM 34.0167 -117.7500 259° West 262 302 9,700 -1,350 Descending Southern California TRACON
Tue 05:18:13 PM 34.0167 -117.8333 270° West 270 311 8,200 -1,150 Descending Southern California TRACON
Tue 05:19:13 PM 34.0000 -117.9167 256° West 251 289 7,400 -1,000 Descending Southern California TRACON
Tue 05:20:13 PM 34.0000 -118.0000 270° West 229 264 6,200 -1,000 Descending Southern California TRACON
Tue 05:21:13 PM 33.9833 -118.0667 253° West 209 241 5,400 -942 Descending Southern California TRACON
Tue 05:22:14 PM 33.9833 -118.1333 270° West 184 212 4,300 -1,263 Descending Southern California TRACON
Tue 05:22:48 PM 33.9761 -118.1689 256° West 190 219 3,400 -1,188 Descending Los Angeles Center
Tue 05:23:50 PM 33.9697 -118.2333 263° West 194 223 2,400 -629 Descending Los Angeles Center
Tue 05:24:52 PM 33.9636 -118.2894 263° West 183 211 2,100 -581 Descending Los Angeles Center
Tue 05:25:54 PM 33.9589 -118.3386 263° West 164 189 1,200 -768 Descending Los Angeles Center
Tue 05:26:57 PM 33.9550 -118.3864 264° West 152 175 500 -480 Descending Los Angeles Center
Tue 05:27:59 PM 33.9500 -118.4244 261° West 124 143 200 -290 Descending Los Angeles Center
Tue 05:31:00 PM 33.9425 -118.4081 140° Southeast  Level Estimated

Login

Don't have an account? Register now (free) for customized features, flight alerts, and more!